sensor_id;sensor_type;location;lat;lon;timestamp;P1;durP1;ratioP1;P2;durP2;ratioP2
73693;SDS011;61997;53.974;11.670;2023-07-13T00:00:17;4.55;;;2.95;;
73693;SDS011;61997;53.974;11.670;2023-07-13T00:02:42;4.90;;;3.30;;
73693;SDS011;61997;53.974;11.670;2023-07-13T00:05:08;4.07;;;3.00;;
73693;SDS011;61997;53.974;11.670;2023-07-13T00:07:34;5.05;;;3.33;;
73693;SDS011;61997;53.974;11.670;2023-07-13T00:10:00;3.90;;;3.05;;
73693;SDS011;61997;53.974;11.670;2023-07-13T00:12:36;4.65;;;2.70;;
73693;SDS011;61997;53.974;11.670;2023-07-13T00:15:07;4.70;;;2.90;;
73693;SDS011;61997;53.974;11.670;2023-07-13T00:17:35;4.55;;;2.83;;
73693;SDS011;61997;53.974;11.670;2023-07-13T00:20:03;5.85;;;3.05;;
73693;SDS011;61997;53.974;11.670;2023-07-13T00:22:29;5.13;;;3.00;;
73693;SDS011;61997;53.974;11.670;2023-07-13T00:24:54;4.25;;;2.85;;
73693;SDS011;61997;53.974;11.670;2023-07-13T00:27:22;5.30;;;2.92;;
73693;SDS011;61997;53.974;11.670;2023-07-13T00:29:48;3.67;;;2.50;;
73693;SDS011;61997;53.974;11.670;2023-07-13T00:32:13;3.05;;;2.55;;
73693;SDS011;61997;53.974;11.670;2023-07-13T00:34:39;3.70;;;2.40;;
73693;SDS011;61997;53.974;11.670;2023-07-13T00:37:05;5.40;;;2.88;;
73693;SDS011;61997;53.974;11.670;2023-07-13T00:39:34;4.55;;;2.80;;
73693;SDS011;61997;53.974;11.670;2023-07-13T00:42:00;4.50;;;2.90;;
73693;SDS011;61997;53.974;11.670;2023-07-13T00:44:26;4.63;;;3.10;;
73693;SDS011;61997;53.974;11.670;2023-07-13T00:46:51;5.22;;;2.70;;
73693;SDS011;61997;53.974;11.670;2023-07-13T00:49:18;4.07;;;2.58;;
73693;SDS011;61997;53.974;11.670;2023-07-13T00:51:47;3.42;;;2.55;;
73693;SDS011;61997;53.974;11.670;2023-07-13T00:54:15;4.18;;;2.65;;
73693;SDS011;61997;53.974;11.670;2023-07-13T00:56:52;3.90;;;2.45;;
73693;SDS011;61997;53.974;11.670;2023-07-13T00:59:19;3.83;;;2.60;;
73693;SDS011;61997;53.974;11.670;2023-07-13T01:01:45;3.97;;;2.42;;
73693;SDS011;61997;53.974;11.670;2023-07-13T01:04:11;4.03;;;2.90;;
73693;SDS011;61997;53.974;11.670;2023-07-13T01:06:38;3.80;;;2.35;;
73693;SDS011;61997;53.974;11.670;2023-07-13T01:09:05;4.18;;;2.75;;
73693;SDS011;61997;53.974;11.670;2023-07-13T01:11:32;3.63;;;2.40;;
73693;SDS011;61997;53.974;11.670;2023-07-13T01:13:57;4.22;;;2.53;;
73693;SDS011;61997;53.974;11.670;2023-07-13T01:16:27;3.97;;;2.50;;
73693;SDS011;61997;53.974;11.670;2023-07-13T01:18:55;3.45;;;2.50;;
73693;SDS011;61997;53.974;11.670;2023-07-13T01:21:23;3.13;;;2.05;;
73693;SDS011;61997;53.974;11.670;2023-07-13T01:23:49;3.92;;;2.38;;
73693;SDS011;61997;53.974;11.670;2023-07-13T01:26:14;4.93;;;2.35;;
73693;SDS011;61997;53.974;11.670;2023-07-13T01:28:40;3.25;;;2.15;;
73693;SDS011;61997;53.974;11.670;2023-07-13T01:31:05;4.25;;;2.85;;
73693;SDS011;61997;53.974;11.670;2023-07-13T01:33:31;4.05;;;2.53;;
73693;SDS011;61997;53.974;11.670;2023-07-13T01:35:56;3.25;;;2.17;;
73693;SDS011;61997;53.974;11.670;2023-07-13T01:38:24;4.20;;;2.70;;
73693;SDS011;61997;53.974;11.670;2023-07-13T01:40:51;3.50;;;2.75;;
73693;SDS011;61997;53.974;11.670;2023-07-13T01:43:17;3.15;;;2.38;;
73693;SDS011;61997;53.974;11.670;2023-07-13T01:45:43;3.25;;;2.45;;
73693;SDS011;61997;53.974;11.670;2023-07-13T01:48:09;5.38;;;2.42;;
73693;SDS011;61997;53.974;11.670;2023-07-13T01:50:34;3.42;;;2.25;;
73693;SDS011;61997;53.974;11.670;2023-07-13T01:53:00;3.78;;;2.22;;
73693;SDS011;61997;53.974;11.670;2023-07-13T01:55:27;3.70;;;2.08;;
73693;SDS011;61997;53.974;11.670;2023-07-13T01:57:52;3.10;;;2.30;;
73693;SDS011;61997;53.974;11.670;2023-07-13T02:00:18;4.07;;;2.58;;
73693;SDS011;61997;53.974;11.670;2023-07-13T02:02:43;4.00;;;2.67;;
73693;SDS011;61997;53.974;11.670;2023-07-13T02:05:09;3.03;;;2.00;;
73693;SDS011;61997;53.974;11.670;2023-07-13T02:07:34;4.05;;;2.17;;
73693;SDS011;61997;53.974;11.670;2023-07-13T02:10:00;3.20;;;2.33;;
73693;SDS011;61997;53.974;11.670;2023-07-13T02:12:25;3.35;;;2.72;;
73693;SDS011;61997;53.974;11.670;2023-07-13T02:14:50;3.20;;;2.25;;
73693;SDS011;61997;53.974;11.670;2023-07-13T02:17:16;4.30;;;2.53;;
73693;SDS011;61997;53.974;11.670;2023-07-13T02:19:41;2.95;;;2.13;;
73693;SDS011;61997;53.974;11.670;2023-07-13T02:22:07;3.47;;;2.13;;
73693;SDS011;61997;53.974;11.670;2023-07-13T02:24:32;3.67;;;2.45;;
73693;SDS011;61997;53.974;11.670;2023-07-13T02:26:57;3.80;;;2.25;;
73693;SDS011;61997;53.974;11.670;2023-07-13T02:29:23;3.92;;;2.10;;
73693;SDS011;61997;53.974;11.670;2023-07-13T02:31:48;3.15;;;2.10;;
73693;SDS011;61997;53.974;11.670;2023-07-13T02:34:14;2.95;;;2.20;;
73693;SDS011;61997;53.974;11.670;2023-07-13T02:36:39;3.08;;;2.10;;
73693;SDS011;61997;53.974;11.670;2023-07-13T02:39:05;3.72;;;2.08;;
73693;SDS011;61997;53.974;11.670;2023-07-13T02:41:31;2.75;;;2.03;;
73693;SDS011;61997;53.974;11.670;2023-07-13T02:44:00;3.88;;;2.10;;
73693;SDS011;61997;53.974;11.670;2023-07-13T02:46:32;2.78;;;1.92;;
73693;SDS011;61997;53.974;11.670;2023-07-13T02:48:58;4.32;;;2.90;;
73693;SDS011;61997;53.974;11.670;2023-07-13T02:51:24;3.30;;;2.22;;
73693;SDS011;61997;53.974;11.670;2023-07-13T02:53:49;3.67;;;1.90;;
73693;SDS011;61997;53.974;11.670;2023-07-13T02:56:15;2.80;;;2.15;;
73693;SDS011;61997;53.974;11.670;2023-07-13T02:58:40;3.85;;;2.20;;
73693;SDS011;61997;53.974;11.670;2023-07-13T03:01:06;2.65;;;1.90;;
73693;SDS011;61997;53.974;11.670;2023-07-13T03:03:35;2.53;;;1.75;;
73693;SDS011;61997;53.974;11.670;2023-07-13T03:06:01;6.10;;;2.47;;
73693;SDS011;61997;53.974;11.670;2023-07-13T03:08:28;2.63;;;2.00;;
73693;SDS011;61997;53.974;11.670;2023-07-13T03:11:00;3.08;;;1.98;;
73693;SDS011;61997;53.974;11.670;2023-07-13T03:13:26;2.88;;;2.05;;
73693;SDS011;61997;53.974;11.670;2023-07-13T03:15:51;3.90;;;2.00;;
73693;SDS011;61997;53.974;11.670;2023-07-13T03:18:16;2.97;;;2.22;;
73693;SDS011;61997;53.974;11.670;2023-07-13T03:20:42;2.70;;;1.80;;
73693;SDS011;61997;53.974;11.670;2023-07-13T03:23:07;3.35;;;2.13;;
73693;SDS011;61997;53.974;11.670;2023-07-13T03:25:32;3.72;;;1.98;;
73693;SDS011;61997;53.974;11.670;2023-07-13T03:27:58;3.10;;;2.08;;
73693;SDS011;61997;53.974;11.670;2023-07-13T03:30:23;3.20;;;1.70;;
73693;SDS011;61997;53.974;11.670;2023-07-13T03:32:48;3.10;;;1.80;;
73693;SDS011;61997;53.974;11.670;2023-07-13T03:35:14;2.60;;;1.92;;
73693;SDS011;61997;53.974;11.670;2023-07-13T03:37:39;3.50;;;2.17;;
73693;SDS011;61997;53.974;11.670;2023-07-13T03:40:07;2.47;;;1.60;;
73693;SDS011;61997;53.974;11.670;2023-07-13T03:42:34;3.15;;;1.70;;
73693;SDS011;61997;53.974;11.670;2023-07-13T03:44:59;3.25;;;1.70;;
73693;SDS011;61997;53.974;11.670;2023-07-13T03:47:25;2.47;;;1.83;;
73693;SDS011;61997;53.974;11.670;2023-07-13T03:49:50;2.75;;;1.90;;
73693;SDS011;61997;53.974;11.670;2023-07-13T03:52:16;3.13;;;2.05;;
73693;SDS011;61997;53.974;11.670;2023-07-13T03:54:41;2.50;;;1.85;;
73693;SDS011;61997;53.974;11.670;2023-07-13T03:57:07;2.60;;;1.90;;
73693;SDS011;61997;53.974;11.670;2023-07-13T03:59:33;2.65;;;1.80;;
73693;SDS011;61997;53.974;11.670;2023-07-13T04:01:59;2.70;;;1.95;;
73693;SDS011;61997;53.974;11.670;2023-07-13T04:04:25;2.13;;;1.60;;
73693;SDS011;61997;53.974;11.670;2023-07-13T04:06:50;3.15;;;1.70;;
73693;SDS011;61997;53.974;11.670;2023-07-13T04:09:18;2.78;;;1.98;;
73693;SDS011;61997;53.974;11.670;2023-07-13T04:11:43;4.63;;;2.05;;
73693;SDS011;61997;53.974;11.670;2023-07-13T04:14:09;2.78;;;1.80;;
73693;SDS011;61997;53.974;11.670;2023-07-13T04:16:34;2.60;;;1.60;;
73693;SDS011;61997;53.974;11.670;2023-07-13T04:19:00;3.67;;;1.90;;
73693;SDS011;61997;53.974;11.670;2023-07-13T04:21:28;2.55;;;1.60;;
73693;SDS011;61997;53.974;11.670;2023-07-13T04:23:55;2.70;;;1.85;;
73693;SDS011;61997;53.974;11.670;2023-07-13T04:26:20;2.38;;;1.70;;
73693;SDS011;61997;53.974;11.670;2023-07-13T04:28:48;3.17;;;1.83;;
73693;SDS011;61997;53.974;11.670;2023-07-13T04:31:14;2.47;;;1.77;;
73693;SDS011;61997;53.974;11.670;2023-07-13T04:33:39;3.38;;;1.90;;
73693;SDS011;61997;53.974;11.670;2023-07-13T04:36:05;3.15;;;1.65;;
73693;SDS011;61997;53.974;11.670;2023-07-13T04:38:31;2.65;;;2.05;;
73693;SDS011;61997;53.974;11.670;2023-07-13T04:41:01;3.28;;;1.95;;
73693;SDS011;61997;53.974;11.670;2023-07-13T04:43:29;2.15;;;1.60;;
73693;SDS011;61997;53.974;11.670;2023-07-13T04:45:55;2.75;;;1.75;;
73693;SDS011;61997;53.974;11.670;2023-07-13T04:48:21;2.60;;;1.83;;
73693;SDS011;61997;53.974;11.670;2023-07-13T04:50:47;2.85;;;1.60;;
73693;SDS011;61997;53.974;11.670;2023-07-13T04:53:13;2.72;;;1.60;;
73693;SDS011;61997;53.974;11.670;2023-07-13T04:55:38;2.45;;;1.83;;
73693;SDS011;61997;53.974;11.670;2023-07-13T04:58:04;2.65;;;1.50;;
73693;SDS011;61997;53.974;11.670;2023-07-13T05:00:30;3.28;;;1.85;;
73693;SDS011;61997;53.974;11.670;2023-07-13T05:02:55;2.75;;;1.58;;
73693;SDS011;61997;53.974;11.670;2023-07-13T05:05:22;3.25;;;1.80;;
73693;SDS011;61997;53.974;11.670;2023-07-13T05:07:48;2.17;;;1.50;;
73693;SDS011;61997;53.974;11.670;2023-07-13T05:10:13;2.10;;;1.65;;
73693;SDS011;61997;53.974;11.670;2023-07-13T05:12:40;3.55;;;1.92;;
73693;SDS011;61997;53.974;11.670;2023-07-13T05:15:05;3.08;;;1.67;;
73693;SDS011;61997;53.974;11.670;2023-07-13T05:17:31;3.35;;;1.70;;
73693;SDS011;61997;53.974;11.670;2023-07-13T05:19:57;2.53;;;1.60;;
73693;SDS011;61997;53.974;11.670;2023-07-13T05:22:22;2.85;;;1.60;;
73693;SDS011;61997;53.974;11.670;2023-07-13T05:24:48;2.30;;;1.70;;
73693;SDS011;61997;53.974;11.670;2023-07-13T05:27:13;3.42;;;1.73;;
73693;SDS011;61997;53.974;11.670;2023-07-13T05:29:38;6.38;;;2.03;;
73693;SDS011;61997;53.974;11.670;2023-07-13T05:32:04;1.75;;;1.30;;
73693;SDS011;61997;53.974;11.670;2023-07-13T05:34:29;2.80;;;1.50;;
73693;SDS011;61997;53.974;11.670;2023-07-13T05:36:55;2.10;;;1.50;;
73693;SDS011;61997;53.974;11.670;2023-07-13T05:39:20;2.00;;;1.45;;
73693;SDS011;61997;53.974;11.670;2023-07-13T05:41:46;2.83;;;1.40;;
73693;SDS011;61997;53.974;11.670;2023-07-13T05:44:11;2.38;;;1.70;;
73693;SDS011;61997;53.974;11.670;2023-07-13T05:46:37;2.67;;;1.42;;
73693;SDS011;61997;53.974;11.670;2023-07-13T05:49:02;1.75;;;1.10;;
73693;SDS011;61997;53.974;11.670;2023-07-13T05:51:28;2.65;;;1.70;;
73693;SDS011;61997;53.974;11.670;2023-07-13T05:53:54;2.97;;;1.30;;
73693;SDS011;61997;53.974;11.670;2023-07-13T05:56:19;2.03;;;1.35;;
73693;SDS011;61997;53.974;11.670;2023-07-13T05:58:44;3.00;;;2.20;;
73693;SDS011;61997;53.974;11.670;2023-07-13T06:01:11;2.15;;;1.38;;
73693;SDS011;61997;53.974;11.670;2023-07-13T06:06:04;3.05;;;1.80;;
73693;SDS011;61997;53.974;11.670;2023-07-13T06:08:30;2.80;;;1.70;;
73693;SDS011;61997;53.974;11.670;2023-07-13T06:11:01;2.30;;;1.58;;
73693;SDS011;61997;53.974;11.670;2023-07-13T06:13:30;3.20;;;2.05;;
73693;SDS011;61997;53.974;11.670;2023-07-13T06:15:55;2.70;;;1.77;;
73693;SDS011;61997;53.974;11.670;2023-07-13T06:18:21;2.13;;;1.52;;
73693;SDS011;61997;53.974;11.670;2023-07-13T06:20:46;2.08;;;1.52;;
73693;SDS011;61997;53.974;11.670;2023-07-13T06:23:11;2.30;;;1.80;;
73693;SDS011;61997;53.974;11.670;2023-07-13T06:25:37;3.40;;;1.70;;
73693;SDS011;61997;53.974;11.670;2023-07-13T06:28:02;2.20;;;1.70;;
73693;SDS011;61997;53.974;11.670;2023-07-13T06:30:27;2.47;;;1.60;;
73693;SDS011;61997;53.974;11.670;2023-07-13T06:32:53;2.55;;;1.77;;
73693;SDS011;61997;53.974;11.670;2023-07-13T06:35:19;2.45;;;1.80;;
73693;SDS011;61997;53.974;11.670;2023-07-13T06:37:44;3.53;;;1.65;;
73693;SDS011;61997;53.974;11.670;2023-07-13T06:40:09;3.10;;;1.88;;
73693;SDS011;61997;53.974;11.670;2023-07-13T06:42:35;2.72;;;1.80;;
73693;SDS011;61997;53.974;11.670;2023-07-13T06:45:00;2.58;;;1.88;;
73693;SDS011;61997;53.974;11.670;2023-07-13T06:47:26;2.65;;;1.90;;
73693;SDS011;61997;53.974;11.670;2023-07-13T06:49:52;2.47;;;1.63;;
73693;SDS011;61997;53.974;11.670;2023-07-13T06:52:17;2.50;;;1.50;;
73693;SDS011;61997;53.974;11.670;2023-07-13T06:54:42;2.95;;;1.65;;
73693;SDS011;61997;53.974;11.670;2023-07-13T06:57:08;2.35;;;1.50;;
73693;SDS011;61997;53.974;11.670;2023-07-13T06:59:34;2.83;;;1.85;;
73693;SDS011;61997;53.974;11.670;2023-07-13T07:01:59;3.15;;;1.90;;
73693;SDS011;61997;53.974;11.670;2023-07-13T07:04:24;2.42;;;1.70;;
73693;SDS011;61997;53.974;11.670;2023-07-13T07:06:50;2.13;;;1.35;;
73693;SDS011;61997;53.974;11.670;2023-07-13T07:09:15;2.80;;;1.52;;
73693;SDS011;61997;53.974;11.670;2023-07-13T07:11:41;2.35;;;1.52;;
73693;SDS011;61997;53.974;11.670;2023-07-13T07:14:07;3.03;;;1.80;;
73693;SDS011;61997;53.974;11.670;2023-07-13T07:16:33;2.90;;;2.00;;
73693;SDS011;61997;53.974;11.670;2023-07-13T07:18:58;2.88;;;1.73;;
73693;SDS011;61997;53.974;11.670;2023-07-13T07:21:23;2.10;;;1.38;;
73693;SDS011;61997;53.974;11.670;2023-07-13T07:23:49;2.60;;;1.83;;
73693;SDS011;61997;53.974;11.670;2023-07-13T07:26:14;2.83;;;1.55;;
73693;SDS011;61997;53.974;11.670;2023-07-13T07:28:40;2.45;;;1.98;;
73693;SDS011;61997;53.974;11.670;2023-07-13T07:31:06;1.80;;;1.30;;
73693;SDS011;61997;53.974;11.670;2023-07-13T07:33:32;2.60;;;1.50;;
73693;SDS011;61997;53.974;11.670;2023-07-13T07:35:59;2.35;;;1.45;;
73693;SDS011;61997;53.974;11.670;2023-07-13T07:38:25;2.42;;;1.63;;
73693;SDS011;61997;53.974;11.670;2023-07-13T07:40:50;2.45;;;1.50;;
73693;SDS011;61997;53.974;11.670;2023-07-13T07:43:16;2.20;;;1.50;;
73693;SDS011;61997;53.974;11.670;2023-07-13T07:45:41;2.45;;;1.38;;
73693;SDS011;61997;53.974;11.670;2023-07-13T07:48:09;2.10;;;1.38;;
73693;SDS011;61997;53.974;11.670;2023-07-13T07:50:34;3.42;;;1.73;;
73693;SDS011;61997;53.974;11.670;2023-07-13T07:53:00;2.78;;;1.35;;
73693;SDS011;61997;53.974;11.670;2023-07-13T07:55:27;2.70;;;1.48;;
73693;SDS011;61997;53.974;11.670;2023-07-13T07:57:52;2.03;;;1.40;;
73693;SDS011;61997;53.974;11.670;2023-07-13T08:00:18;2.50;;;1.45;;
73693;SDS011;61997;53.974;11.670;2023-07-13T08:02:43;2.15;;;1.25;;
73693;SDS011;61997;53.974;11.670;2023-07-13T08:05:09;3.28;;;1.90;;
73693;SDS011;61997;53.974;11.670;2023-07-13T08:07:36;2.58;;;1.50;;
73693;SDS011;61997;53.974;11.670;2023-07-13T08:10:02;2.15;;;1.35;;
73693;SDS011;61997;53.974;11.670;2023-07-13T08:12:28;2.75;;;1.33;;
73693;SDS011;61997;53.974;11.670;2023-07-13T08:14:53;2.75;;;1.48;;
73693;SDS011;61997;53.974;11.670;2023-07-13T08:17:22;3.60;;;1.70;;
73693;SDS011;61997;53.974;11.670;2023-07-13T08:19:48;2.65;;;1.52;;
73693;SDS011;61997;53.974;11.670;2023-07-13T08:22:13;2.63;;;1.50;;
73693;SDS011;61997;53.974;11.670;2023-07-13T08:24:39;2.17;;;1.50;;
73693;SDS011;61997;53.974;11.670;2023-07-13T08:27:04;1.80;;;1.35;;
73693;SDS011;61997;53.974;11.670;2023-07-13T08:29:30;2.40;;;1.70;;
73693;SDS011;61997;53.974;11.670;2023-07-13T08:31:59;2.55;;;1.40;;
73693;SDS011;61997;53.974;11.670;2023-07-13T08:34:25;2.72;;;1.48;;
73693;SDS011;61997;53.974;11.670;2023-07-13T08:36:51;2.15;;;1.25;;
73693;SDS011;61997;53.974;11.670;2023-07-13T08:39:16;2.17;;;1.50;;
73693;SDS011;61997;53.974;11.670;2023-07-13T08:41:44;3.25;;;1.42;;
73693;SDS011;61997;53.974;11.670;2023-07-13T08:44:16;2.47;;;1.48;;
73693;SDS011;61997;53.974;11.670;2023-07-13T08:46:49;3.03;;;1.48;;
73693;SDS011;61997;53.974;11.670;2023-07-13T08:49:17;2.13;;;1.40;;
73693;SDS011;61997;53.974;11.670;2023-07-13T08:51:47;1.90;;;1.27;;
73693;SDS011;61997;53.974;11.670;2023-07-13T08:56:58;1.75;;;1.40;;
73693;SDS011;61997;53.974;11.670;2023-07-13T08:59:27;2.28;;;1.42;;
73693;SDS011;61997;53.974;11.670;2023-07-13T09:04:37;2.72;;;1.30;;
73693;SDS011;61997;53.974;11.670;2023-07-13T09:07:28;2.88;;;1.48;;
73693;SDS011;61997;53.974;11.670;2023-07-13T09:10:02;3.78;;;2.40;;
73693;SDS011;61997;53.974;11.670;2023-07-13T09:12:35;4.20;;;2.10;;
73693;SDS011;61997;53.974;11.670;2023-07-13T09:15:17;5.10;;;2.42;;
73693;SDS011;61997;53.974;11.670;2023-07-13T09:17:50;3.20;;;1.85;;
73693;SDS011;61997;53.974;11.670;2023-07-13T09:20:20;2.85;;;1.83;;
73693;SDS011;61997;53.974;11.670;2023-07-13T09:22:50;4.95;;;1.88;;
73693;SDS011;61997;53.974;11.670;2023-07-13T09:28:10;3.17;;;2.20;;
73693;SDS011;61997;53.974;11.670;2023-07-13T09:33:16;2.35;;;1.92;;
73693;SDS011;61997;53.974;11.670;2023-07-13T09:35:42;3.17;;;1.95;;
73693;SDS011;61997;53.974;11.670;2023-07-13T09:38:14;4.80;;;2.03;;
73693;SDS011;61997;53.974;11.670;2023-07-13T09:43:34;3.47;;;1.80;;
73693;SDS011;61997;53.974;11.670;2023-07-13T09:45:59;5.95;;;2.30;;
73693;SDS011;61997;53.974;11.670;2023-07-13T09:48:25;5.40;;;1.73;;
73693;SDS011;61997;53.974;11.670;2023-07-13T09:50:55;4.43;;;1.63;;
73693;SDS011;61997;53.974;11.670;2023-07-13T09:53:22;5.40;;;1.88;;
73693;SDS011;61997;53.974;11.670;2023-07-13T09:55:48;3.72;;;1.50;;
73693;SDS011;61997;53.974;11.670;2023-07-13T09:58:19;3.38;;;1.80;;
73693;SDS011;61997;53.974;11.670;2023-07-13T10:01:01;7.22;;;2.25;;
73693;SDS011;61997;53.974;11.670;2023-07-13T10:03:30;7.65;;;1.95;;
73693;SDS011;61997;53.974;11.670;2023-07-13T10:06:13;4.53;;;1.80;;
73693;SDS011;61997;53.974;11.670;2023-07-13T10:08:40;5.63;;;1.50;;
73693;SDS011;61997;53.974;11.670;2023-07-13T10:11:14;4.20;;;1.80;;
73693;SDS011;61997;53.974;11.670;2023-07-13T10:13:54;3.42;;;1.50;;
73693;SDS011;61997;53.974;11.670;2023-07-13T10:16:21;3.60;;;1.45;;
73693;SDS011;61997;53.974;11.670;2023-07-13T10:18:49;4.00;;;1.67;;
73693;SDS011;61997;53.974;11.670;2023-07-13T10:21:20;3.85;;;1.50;;
73693;SDS011;61997;53.974;11.670;2023-07-13T10:23:48;2.75;;;1.30;;
73693;SDS011;61997;53.974;11.670;2023-07-13T10:26:30;4.13;;;1.40;;
73693;SDS011;61997;53.974;11.670;2023-07-13T10:28:59;2.88;;;1.33;;
73693;SDS011;61997;53.974;11.670;2023-07-13T10:31:29;5.55;;;1.60;;
73693;SDS011;61997;53.974;11.670;2023-07-13T10:33:55;2.42;;;1.33;;
73693;SDS011;61997;53.974;11.670;2023-07-13T10:36:32;5.47;;;1.58;;
73693;SDS011;61997;53.974;11.670;2023-07-13T10:39:02;3.47;;;1.33;;
73693;SDS011;61997;53.974;11.670;2023-07-13T10:41:29;2.92;;;1.30;;
73693;SDS011;61997;53.974;11.670;2023-07-13T10:43:56;2.90;;;1.58;;
73693;SDS011;61997;53.974;11.670;2023-07-13T10:46:23;4.57;;;1.60;;
73693;SDS011;61997;53.974;11.670;2023-07-13T10:48:55;2.85;;;1.60;;
73693;SDS011;61997;53.974;11.670;2023-07-13T10:51:24;3.25;;;1.45;;
73693;SDS011;61997;53.974;11.670;2023-07-13T10:54:10;2.55;;;1.33;;
73693;SDS011;61997;53.974;11.670;2023-07-13T10:56:38;2.67;;;1.48;;
73693;SDS011;61997;53.974;11.670;2023-07-13T11:04:28;2.97;;;1.50;;
73693;SDS011;61997;53.974;11.670;2023-07-13T11:06:59;3.22;;;1.30;;
73693;SDS011;61997;53.974;11.670;2023-07-13T11:12:01;2.50;;;1.30;;
73693;SDS011;61997;53.974;11.670;2023-07-13T11:22:47;1.80;;;1.27;;
73693;SDS011;61997;53.974;11.670;2023-07-13T11:25:24;2.70;;;1.30;;
73693;SDS011;61997;53.974;11.670;2023-07-13T11:30:38;2.00;;;1.13;;
73693;SDS011;61997;53.974;11.670;2023-07-13T11:41:48;2.47;;;1.20;;
73693;SDS011;61997;53.974;11.670;2023-07-13T11:44:17;3.20;;;1.30;;
73693;SDS011;61997;53.974;11.670;2023-07-13T11:46:48;2.63;;;1.23;;
73693;SDS011;61997;53.974;11.670;2023-07-13T11:49:17;2.33;;;1.20;;
73693;SDS011;61997;53.974;11.670;2023-07-13T11:51:43;2.28;;;1.27;;
73693;SDS011;61997;53.974;11.670;2023-07-13T11:54:20;3.22;;;1.38;;
73693;SDS011;61997;53.974;11.670;2023-07-13T11:57:24;2.67;;;1.23;;
73693;SDS011;61997;53.974;11.670;2023-07-13T11:59:52;2.00;;;1.40;;
73693;SDS011;61997;53.974;11.670;2023-07-13T12:02:41;2.00;;;1.30;;
73693;SDS011;61997;53.974;11.670;2023-07-13T12:05:12;2.30;;;1.52;;
73693;SDS011;61997;53.974;11.670;2023-07-13T12:07:39;2.28;;;1.30;;
73693;SDS011;61997;53.974;11.670;2023-07-13T12:12:37;2.17;;;1.30;;
73693;SDS011;61997;53.974;11.670;2023-07-13T12:15:06;2.15;;;1.48;;
73693;SDS011;61997;53.974;11.670;2023-07-13T12:17:34;2.90;;;1.77;;
73693;SDS011;61997;53.974;11.670;2023-07-13T12:20:04;3.25;;;1.50;;
73693;SDS011;61997;53.974;11.670;2023-07-13T12:22:49;3.47;;;1.23;;
73693;SDS011;61997;53.974;11.670;2023-07-13T12:25:15;2.05;;;1.40;;
73693;SDS011;61997;53.974;11.670;2023-07-13T12:27:42;3.10;;;1.10;;
73693;SDS011;61997;53.974;11.670;2023-07-13T12:30:31;3.17;;;1.40;;
73693;SDS011;61997;53.974;11.670;2023-07-13T12:33:08;2.03;;;1.25;;
73693;SDS011;61997;53.974;11.670;2023-07-13T12:35:41;3.13;;;1.25;;
73693;SDS011;61997;53.974;11.670;2023-07-13T12:38:11;3.10;;;1.33;;
73693;SDS011;61997;53.974;11.670;2023-07-13T12:40:37;1.70;;;1.20;;
73693;SDS011;61997;53.974;11.670;2023-07-13T12:43:03;2.47;;;1.50;;
73693;SDS011;61997;53.974;11.670;2023-07-13T12:45:32;2.65;;;1.30;;
73693;SDS011;61997;53.974;11.670;2023-07-13T12:48:02;7.05;;;1.73;;
73693;SDS011;61997;53.974;11.670;2023-07-13T12:50:37;5.10;;;1.40;;
73693;SDS011;61997;53.974;11.670;2023-07-13T12:53:12;2.05;;;1.35;;
73693;SDS011;61997;53.974;11.670;2023-07-13T12:55:40;3.40;;;1.40;;
73693;SDS011;61997;53.974;11.670;2023-07-13T12:58:17;2.20;;;1.48;;
73693;SDS011;61997;53.974;11.670;2023-07-13T13:01:03;2.08;;;1.30;;
73693;SDS011;61997;53.974;11.670;2023-07-13T13:06:01;3.10;;;1.20;;
73693;SDS011;61997;53.974;11.670;2023-07-13T13:08:29;2.70;;;1.27;;
73693;SDS011;61997;53.974;11.670;2023-07-13T13:10:56;2.25;;;1.20;;
73693;SDS011;61997;53.974;11.670;2023-07-13T13:13:21;3.03;;;1.35;;
73693;SDS011;61997;53.974;11.670;2023-07-13T13:15:47;2.75;;;1.30;;
73693;SDS011;61997;53.974;11.670;2023-07-13T13:18:22;3.05;;;1.30;;
73693;SDS011;61997;53.974;11.670;2023-07-13T13:20:51;2.67;;;1.70;;
73693;SDS011;61997;53.974;11.670;2023-07-13T13:23:18;2.85;;;1.58;;
73693;SDS011;61997;53.974;11.670;2023-07-13T13:25:48;1.98;;;1.10;;
73693;SDS011;61997;53.974;11.670;2023-07-13T13:28:19;2.22;;;1.30;;
73693;SDS011;61997;53.974;11.670;2023-07-13T13:30:45;2.30;;;1.15;;
73693;SDS011;61997;53.974;11.670;2023-07-13T13:33:13;3.65;;;1.40;;
73693;SDS011;61997;53.974;11.670;2023-07-13T13:35:40;2.65;;;1.20;;
73693;SDS011;61997;53.974;11.670;2023-07-13T13:38:16;3.08;;;1.70;;
73693;SDS011;61997;53.974;11.670;2023-07-13T13:40:43;3.00;;;1.40;;
73693;SDS011;61997;53.974;11.670;2023-07-13T13:43:22;2.63;;;1.02;;
73693;SDS011;61997;53.974;11.670;2023-07-13T13:45:56;1.52;;;1.20;;
73693;SDS011;61997;53.974;11.670;2023-07-13T13:48:33;2.25;;;1.30;;
73693;SDS011;61997;53.974;11.670;2023-07-13T13:50:59;3.10;;;1.50;;
73693;SDS011;61997;53.974;11.670;2023-07-13T13:53:25;2.60;;;1.33;;
73693;SDS011;61997;53.974;11.670;2023-07-13T13:55:51;2.40;;;1.10;;
73693;SDS011;61997;53.974;11.670;2023-07-13T13:58:18;2.03;;;1.10;;
73693;SDS011;61997;53.974;11.670;2023-07-13T14:00:44;4.45;;;1.25;;
73693;SDS011;61997;53.974;11.670;2023-07-13T14:03:20;3.33;;;1.38;;
73693;SDS011;61997;53.974;11.670;2023-07-13T14:05:46;1.40;;;1.20;;
73693;SDS011;61997;53.974;11.670;2023-07-13T14:08:20;3.38;;;1.25;;
73693;SDS011;61997;53.974;11.670;2023-07-13T14:13:19;2.45;;;1.00;;
73693;SDS011;61997;53.974;11.670;2023-07-13T14:15:46;3.97;;;1.40;;
73693;SDS011;61997;53.974;11.670;2023-07-13T14:18:12;2.92;;;1.50;;
73693;SDS011;61997;53.974;11.670;2023-07-13T14:20:42;3.30;;;1.27;;
73693;SDS011;61997;53.974;11.670;2023-07-13T14:23:08;1.95;;;1.00;;
73693;SDS011;61997;53.974;11.670;2023-07-13T14:25:34;3.50;;;1.30;;
73693;SDS011;61997;53.974;11.670;2023-07-13T14:27:59;4.03;;;1.20;;
73693;SDS011;61997;53.974;11.670;2023-07-13T14:30:26;2.22;;;1.10;;
73693;SDS011;61997;53.974;11.670;2023-07-13T14:32:51;1.98;;;1.08;;
73693;SDS011;61997;53.974;11.670;2023-07-13T14:35:17;2.47;;;1.15;;
73693;SDS011;61997;53.974;11.670;2023-07-13T14:37:45;2.00;;;1.30;;
73693;SDS011;61997;53.974;11.670;2023-07-13T14:42:40;2.45;;;1.40;;
73693;SDS011;61997;53.974;11.670;2023-07-13T14:45:11;1.70;;;1.05;;
73693;SDS011;61997;53.974;11.670;2023-07-13T14:47:37;1.42;;;1.00;;
73693;SDS011;61997;53.974;11.670;2023-07-13T14:50:03;2.50;;;1.20;;
73693;SDS011;61997;53.974;11.670;2023-07-13T14:52:30;1.50;;;1.10;;
73693;SDS011;61997;53.974;11.670;2023-07-13T14:54:55;1.80;;;1.20;;
73693;SDS011;61997;53.974;11.670;2023-07-13T14:57:21;2.28;;;0.95;;
73693;SDS011;61997;53.974;11.670;2023-07-13T14:59:47;3.17;;;1.13;;
73693;SDS011;61997;53.974;11.670;2023-07-13T15:02:17;2.03;;;1.40;;
73693;SDS011;61997;53.974;11.670;2023-07-13T15:04:46;2.15;;;1.20;;
73693;SDS011;61997;53.974;11.670;2023-07-13T15:07:11;2.97;;;1.08;;
73693;SDS011;61997;53.974;11.670;2023-07-13T15:09:38;3.67;;;1.27;;
73693;SDS011;61997;53.974;11.670;2023-07-13T15:12:04;1.92;;;0.93;;
73693;SDS011;61997;53.974;11.670;2023-07-13T15:14:30;1.65;;;0.98;;
73693;SDS011;61997;53.974;11.670;2023-07-13T15:16:56;2.28;;;1.10;;
73693;SDS011;61997;53.974;11.670;2023-07-13T15:19:21;1.75;;;1.10;;
73693;SDS011;61997;53.974;11.670;2023-07-13T15:21:48;2.65;;;1.13;;
73693;SDS011;61997;53.974;11.670;2023-07-13T15:24:14;1.55;;;1.02;;
73693;SDS011;61997;53.974;11.670;2023-07-13T15:26:40;2.75;;;1.15;;
73693;SDS011;61997;53.974;11.670;2023-07-13T15:29:10;2.80;;;1.20;;